createdAt,value
2023-03-11T00:00:17.076Z,14.30
2023-03-11T00:02:45.545Z,14.40
2023-03-11T00:05:17.657Z,14.40
2023-03-11T00:07:46.130Z,14.40
2023-03-11T00:10:15.843Z,14.40
2023-03-11T00:12:44.304Z,14.40
2023-03-11T00:15:12.983Z,14.50
2023-03-11T00:17:41.639Z,14.40
2023-03-11T00:20:15.577Z,14.50
2023-03-11T00:22:45.410Z,14.50
2023-03-11T00:25:13.878Z,14.50
2023-03-11T00:27:42.283Z,14.50
2023-03-11T00:30:11.994Z,14.50
2023-03-11T00:32:40.586Z,14.50
2023-03-11T00:35:10.165Z,14.50
2023-03-11T00:37:38.609Z,14.50
2023-03-11T00:40:11.001Z,14.50
2023-03-11T00:42:39.428Z,14.60
2023-03-11T00:45:08.379Z,14.60
2023-03-11T00:47:36.954Z,14.60
2023-03-11T00:50:05.695Z,14.60
2023-03-11T00:52:34.058Z,14.60
2023-03-11T00:55:02.455Z,14.60
2023-03-11T00:57:32.311Z,14.60
2023-03-11T01:00:00.792Z,14.60
2023-03-11T01:02:29.384Z,14.60
2023-03-11T01:04:57.858Z,14.60
2023-03-11T01:07:26.241Z,14.60
2023-03-11T01:09:54.733Z,14.60
2023-03-11T01:12:23.152Z,14.60
2023-03-11T01:14:53.161Z,14.60
2023-03-11T01:17:22.730Z,14.60
2023-03-11T01:19:51.420Z,14.70
2023-03-11T01:22:19.917Z,14.70
2023-03-11T01:24:48.379Z,14.70
2023-03-11T01:27:16.765Z,14.80
2023-03-11T01:29:45.228Z,14.70
2023-03-11T01:32:15.141Z,14.70
2023-03-11T01:34:43.640Z,14.80
2023-03-11T01:37:12.050Z,14.80
2023-03-11T01:39:40.451Z,14.80
2023-03-11T01:42:08.914Z,14.80
2023-03-11T01:44:37.316Z,14.90
2023-03-11T01:47:24.164Z,14.90
2023-03-11T01:49:54.082Z,14.90
2023-03-11T01:52:22.615Z,14.90
2023-03-11T01:54:51.961Z,14.90
2023-03-11T01:57:22.492Z,14.80
2023-03-11T01:59:52.033Z,14.80
2023-03-11T02:02:22.813Z,14.80
2023-03-11T02:04:52.082Z,14.80
2023-03-11T02:07:21.906Z,14.80
2023-03-11T02:09:50.350Z,14.80
2023-03-11T02:12:18.890Z,14.90
2023-03-11T02:14:48.821Z,14.80
2023-03-11T02:17:17.412Z,14.80
2023-03-11T02:19:56.469Z,14.80
2023-03-11T02:22:28.388Z,14.80
2023-03-11T02:24:59.249Z,14.80
2023-03-11T02:27:29.692Z,14.80
2023-03-11T02:30:00.056Z,14.80
2023-03-11T02:32:29.063Z,14.80
2023-03-11T02:34:57.470Z,14.80
2023-03-11T02:37:26.022Z,14.80
2023-03-11T02:39:55.082Z,14.90
2023-03-11T02:42:25.146Z,14.80
2023-03-11T02:44:57.572Z,14.90
2023-03-11T02:47:26.593Z,14.90
2023-03-11T02:49:56.238Z,14.90
2023-03-11T02:52:26.397Z,14.90
2023-03-11T02:54:54.901Z,14.90
2023-03-11T02:57:23.396Z,14.90
2023-03-11T02:59:51.913Z,14.90
2023-03-11T03:02:21.884Z,14.80
2023-03-11T03:04:50.322Z,14.80
2023-03-11T03:07:18.830Z,14.80
2023-03-11T03:09:47.277Z,14.80
2023-03-11T03:12:15.691Z,14.80
2023-03-11T03:14:44.123Z,14.80
2023-03-11T03:17:12.673Z,14.80
2023-03-11T03:19:42.595Z,14.80
2023-03-11T03:22:11.097Z,14.80
2023-03-11T03:24:39.497Z,14.80
2023-03-11T03:27:07.928Z,14.80
2023-03-11T03:29:36.393Z,14.90
2023-03-11T03:32:04.963Z,14.90
2023-03-11T03:34:33.499Z,14.90
2023-03-11T03:37:03.332Z,15.00
2023-03-11T03:39:31.725Z,15.00
2023-03-11T03:42:00.278Z,15.00
2023-03-11T03:44:30.687Z,15.00
2023-03-11T03:46:59.194Z,15.10
2023-03-11T03:49:28.274Z,15.10
2023-03-11T03:51:56.755Z,15.10
2023-03-11T03:54:26.638Z,15.10
2023-03-11T03:56:55.065Z,15.10
2023-03-11T03:59:23.538Z,15.10
2023-03-11T04:01:52.001Z,15.00
2023-03-11T04:04:20.530Z,15.10
2023-03-11T04:06:49.110Z,15.10
2023-03-11T04:09:17.542Z,15.00
2023-03-11T04:11:47.450Z,15.10
2023-03-11T04:14:15.986Z,15.10
2023-03-11T04:16:44.415Z,15.10
2023-03-11T04:19:13.187Z,15.10
2023-03-11T04:21:41.641Z,15.10
2023-03-11T04:24:10.192Z,15.10
2023-03-11T04:26:38.804Z,15.00
2023-03-11T04:29:08.616Z,15.00
2023-03-11T04:31:37.189Z,15.00
2023-03-11T04:34:05.595Z,15.00
2023-03-11T04:36:33.996Z,15.10
2023-03-11T04:39:02.361Z,15.10
2023-03-11T04:41:30.761Z,15.10
2023-03-11T04:44:00.361Z,15.10
2023-03-11T04:46:30.346Z,15.10
2023-03-11T04:48:59.117Z,15.10
2023-03-11T04:51:27.776Z,15.10
2023-03-11T04:53:56.557Z,15.10
2023-03-11T04:56:25.244Z,15.10
2023-03-11T04:58:53.962Z,15.00
2023-03-11T05:01:22.459Z,15.10
2023-03-11T05:03:52.401Z,15.00
2023-03-11T05:06:20.822Z,15.00
2023-03-11T05:08:49.207Z,15.00
2023-03-11T05:11:17.631Z,15.00
2023-03-11T05:13:46.171Z,15.00
2023-03-11T05:16:14.607Z,15.00
2023-03-11T05:18:43.017Z,15.00
2023-03-11T05:21:12.828Z,15.00
2023-03-11T05:23:41.204Z,15.00
2023-03-11T05:26:09.906Z,14.90
2023-03-11T05:28:38.345Z,14.90
2023-03-11T05:31:09.038Z,14.90
2023-03-11T05:33:37.487Z,14.90
2023-03-11T05:36:06.977Z,14.90
2023-03-11T05:38:37.202Z,14.90
2023-03-11T05:41:06.332Z,14.90
2023-03-11T05:43:34.809Z,14.90
2023-03-11T05:46:03.186Z,14.90
2023-03-11T05:48:31.559Z,14.90
2023-03-11T05:51:00.592Z,15.00
2023-03-11T05:53:29.007Z,15.00
2023-03-11T05:55:59.123Z,15.00
2023-03-11T05:58:27.588Z,15.00
2023-03-11T06:00:56.098Z,15.10
2023-03-11T06:03:24.630Z,15.10
2023-03-11T06:05:53.755Z,15.10
2023-03-11T06:08:22.257Z,15.10
2023-03-11T06:10:50.656Z,15.10
2023-03-11T06:13:20.522Z,15.10
2023-03-11T06:15:48.902Z,15.10
2023-03-11T06:18:17.355Z,15.10
2023-03-11T06:20:45.882Z,15.10
2023-03-11T06:23:14.333Z,15.10
2023-03-11T06:25:42.711Z,15.10
2023-03-11T06:28:11.521Z,15.20
2023-03-11T06:30:41.280Z,15.20
2023-03-11T06:33:09.641Z,15.20
2023-03-11T06:35:38.117Z,15.30
2023-03-11T06:38:06.534Z,15.20
2023-03-11T06:40:34.880Z,15.30
2023-03-11T06:43:03.353Z,15.20
2023-03-11T06:45:31.819Z,15.20
2023-03-11T06:48:01.617Z,15.20
2023-03-11T06:50:30.050Z,15.20
2023-03-11T06:52:58.622Z,15.20
2023-03-11T06:55:27.051Z,15.30
2023-03-11T06:57:55.584Z,15.30
2023-03-11T07:00:24.066Z,15.40
2023-03-11T07:02:52.463Z,15.40
2023-03-11T07:05:22.369Z,15.50
2023-03-11T07:07:50.770Z,15.50
2023-03-11T07:10:19.250Z,15.60
2023-03-11T07:12:47.694Z,15.60
2023-03-11T07:15:16.265Z,15.70
2023-03-11T07:17:44.669Z,15.70
2023-03-11T07:20:13.503Z,15.70
2023-03-11T07:22:43.325Z,15.70
2023-03-11T07:25:11.740Z,15.70
2023-03-11T07:27:40.240Z,15.80
2023-03-11T07:30:09.320Z,15.70
2023-03-11T07:32:37.788Z,15.80
2023-03-11T07:35:06.733Z,15.80
2023-03-11T07:37:35.132Z,15.90
2023-03-11T07:40:05.195Z,15.90
2023-03-11T07:42:34.913Z,16.00
2023-03-11T07:45:03.387Z,16.10
2023-03-11T07:47:31.799Z,16.10
2023-03-11T07:50:00.281Z,16.20
2023-03-11T07:52:31.176Z,16.20
2023-03-11T07:54:59.609Z,16.30
2023-03-11T07:57:29.416Z,16.30
2023-03-11T07:59:57.869Z,16.40
2023-03-11T08:02:26.306Z,16.50
2023-03-11T08:04:54.889Z,16.50
2023-03-11T08:07:23.358Z,16.60
2023-03-11T08:09:51.763Z,16.70
2023-03-11T08:12:20.294Z,16.90
2023-03-11T08:14:50.070Z,17.00
2023-03-11T08:17:18.490Z,17.10
2023-03-11T08:19:46.889Z,17.10
2023-03-11T08:22:15.344Z,17.10
2023-03-11T08:24:43.842Z,17.20
2023-03-11T08:27:12.424Z,17.30
2023-03-11T08:29:40.868Z,17.30
2023-03-11T08:32:10.819Z,17.40
2023-03-11T08:34:39.676Z,17.60
2023-03-11T08:37:08.145Z,17.80
2023-03-11T08:39:36.587Z,17.90
2023-03-11T08:42:05.219Z,18.00
2023-03-11T08:44:33.678Z,18.20
2023-03-11T08:47:02.364Z,18.30
2023-03-11T08:49:32.168Z,18.50
2023-03-11T08:52:00.584Z,18.60
2023-03-11T08:54:29.381Z,18.70
2023-03-11T08:56:58.740Z,18.80
2023-03-11T08:59:27.176Z,18.80
2023-03-11T09:01:55.609Z,18.90
2023-03-11T09:04:24.158Z,18.90
2023-03-11T09:06:53.961Z,19.00
2023-03-11T09:09:22.436Z,19.10
2023-03-11T09:11:50.904Z,19.10
2023-03-11T09:14:19.397Z,19.30
2023-03-11T09:16:47.801Z,19.40
2023-03-11T09:19:16.267Z,19.50
2023-03-11T09:21:44.703Z,19.50
2023-03-11T09:24:14.516Z,19.50
2023-03-11T09:26:42.964Z,19.60
2023-03-11T09:29:11.379Z,19.60
2023-03-11T09:31:39.858Z,19.60
2023-03-11T09:34:08.383Z,19.70
2023-03-11T09:36:36.867Z,19.70
2023-03-11T09:39:05.326Z,19.80
2023-03-11T09:41:55.266Z,19.80
2023-03-11T09:44:29.245Z,19.80
2023-03-11T09:47:15.538Z,19.80
2023-03-11T09:49:48.660Z,19.70
2023-03-11T09:52:17.608Z,19.80
2023-03-11T09:54:47.260Z,19.80
2023-03-11T09:57:20.163Z,19.80
2023-03-11T09:59:49.379Z,19.60
2023-03-11T10:02:19.517Z,19.40
2023-03-11T10:04:53.027Z,19.50
2023-03-11T10:07:22.986Z,19.30
2023-03-11T10:09:52.824Z,19.30
2023-03-11T10:12:33.173Z,19.40
2023-03-11T10:15:07.388Z,19.20
2023-03-11T10:17:45.950Z,19.10
2023-03-11T10:20:20.915Z,18.90
2023-03-11T10:22:53.792Z,18.90
2023-03-11T10:25:23.916Z,18.90
2023-03-11T10:27:56.588Z,18.90
2023-03-11T10:30:27.293Z,18.70
2023-03-11T10:32:58.567Z,18.60
2023-03-11T10:35:30.436Z,18.60
2023-03-11T10:38:00.575Z,18.50
2023-03-11T10:40:31.589Z,18.50
2023-03-11T10:43:03.318Z,18.50
2023-03-11T10:45:35.959Z,18.60
2023-03-11T10:48:06.159Z,18.60
2023-03-11T10:50:36.684Z,18.70
2023-03-11T10:53:06.306Z,18.70
2023-03-11T10:55:34.690Z,18.90
2023-03-11T10:58:08.518Z,18.90
2023-03-11T11:00:36.926Z,18.90
2023-03-11T11:03:06.797Z,18.90
2023-03-11T11:05:35.848Z,18.90
2023-03-11T11:08:05.907Z,18.90
2023-03-11T11:10:35.278Z,18.80
2023-03-11T11:13:05.158Z,18.80
2023-03-11T11:15:35.926Z,18.90
2023-03-11T11:18:05.623Z,19.00
2023-03-11T11:20:35.338Z,18.90
2023-03-11T11:23:04.734Z,18.70
2023-03-11T11:25:34.172Z,18.70
2023-03-11T11:28:05.207Z,18.70
2023-03-11T11:30:35.107Z,18.70
2023-03-11T11:33:22.399Z,18.70
2023-03-11T11:35:51.378Z,18.60
2023-03-11T11:38:22.529Z,18.60
2023-03-11T11:40:51.258Z,18.60
2023-03-11T11:43:21.004Z,18.70
2023-03-11T11:45:56.179Z,18.70
2023-03-11T11:48:27.933Z,18.60
2023-03-11T11:50:58.853Z,18.50
2023-03-11T11:53:32.903Z,18.60
2023-03-11T11:56:02.473Z,18.50
2023-03-11T11:58:31.803Z,18.40
2023-03-11T12:01:08.916Z,18.40
2023-03-11T12:03:55.425Z,18.50
2023-03-11T12:06:28.340Z,18.40
2023-03-11T12:09:01.590Z,18.50
2023-03-11T12:11:34.352Z,18.40
2023-03-11T12:14:05.726Z,18.30
2023-03-11T12:16:40.919Z,18.30
2023-03-11T12:19:15.992Z,18.20
2023-03-11T12:22:01.369Z,18.30
2023-03-11T12:24:40.464Z,18.40
2023-03-11T12:27:14.308Z,18.40
2023-03-11T12:29:45.666Z,18.30
2023-03-11T12:32:21.255Z,18.30
2023-03-11T12:34:49.815Z,18.30
2023-03-11T12:37:22.488Z,18.10
2023-03-11T12:39:50.881Z,18.00
2023-03-11T12:42:20.383Z,17.90
2023-03-11T12:44:49.368Z,18.00
2023-03-11T12:47:23.267Z,17.90
2023-03-11T12:49:55.028Z,17.90
2023-03-11T12:52:27.902Z,17.80
2023-03-11T12:55:14.730Z,17.80
2023-03-11T12:57:50.417Z,17.80
2023-03-11T13:00:25.814Z,17.90
2023-03-11T13:03:06.091Z,17.90
2023-03-11T13:05:42.578Z,17.90
2023-03-11T13:08:14.029Z,17.90
2023-03-11T13:10:43.401Z,17.90
2023-03-11T13:13:24.817Z,17.90
2023-03-11T13:15:53.622Z,17.90
2023-03-11T13:18:25.712Z,17.90
2023-03-11T13:20:57.186Z,18.10
2023-03-11T13:23:29.817Z,18.10
2023-03-11T13:26:28.167Z,18.20
2023-03-11T13:29:00.530Z,18.20
2023-03-11T13:31:38.926Z,18.30
2023-03-11T13:34:15.572Z,18.20
2023-03-11T13:36:50.420Z,18.20
2023-03-11T13:39:23.071Z,18.20
2023-03-11T13:41:51.519Z,18.30
2023-03-11T13:44:26.127Z,18.10
2023-03-11T13:46:57.059Z,18.10
2023-03-11T13:49:31.547Z,18.10
2023-03-11T13:52:01.565Z,18.20
2023-03-11T13:54:46.563Z,18.30
2023-03-11T13:57:22.842Z,18.30
2023-03-11T13:59:53.027Z,18.30
2023-03-11T14:02:23.020Z,18.20
2023-03-11T14:04:54.617Z,18.10
2023-03-11T14:07:25.509Z,18.10
2023-03-11T14:10:08.127Z,18.10
2023-03-11T14:12:36.545Z,18.10
2023-03-11T14:15:06.541Z,17.80
2023-03-11T14:17:35.056Z,17.90
2023-03-11T14:20:06.956Z,17.70
2023-03-11T14:22:35.622Z,17.80
2023-03-11T14:25:08.221Z,17.80
2023-03-11T14:27:36.992Z,17.90
2023-03-11T14:30:05.951Z,17.90
2023-03-11T14:32:35.129Z,17.90
2023-03-11T14:35:03.824Z,17.90
2023-03-11T14:37:34.642Z,17.80
2023-03-11T14:40:03.223Z,17.80
2023-03-11T14:42:34.698Z,17.70
2023-03-11T14:45:05.300Z,17.60
2023-03-11T14:47:37.435Z,17.60
2023-03-11T14:50:06.825Z,17.60
2023-03-11T14:52:38.865Z,17.70
2023-03-11T14:55:10.189Z,17.80
2023-03-11T14:57:41.231Z,17.70
2023-03-11T15:00:16.029Z,17.60
2023-03-11T15:02:47.124Z,17.70
2023-03-11T15:05:19.465Z,17.70
2023-03-11T15:07:50.093Z,17.60
2023-03-11T15:10:18.489Z,17.60
2023-03-11T15:12:47.004Z,17.50
2023-03-11T15:15:26.306Z,17.50
2023-03-11T15:17:55.524Z,17.40
2023-03-11T15:20:24.863Z,17.40
2023-03-11T15:23:01.502Z,17.40
2023-03-11T15:25:31.321Z,17.30
2023-03-11T15:27:59.953Z,17.30
2023-03-11T15:30:30.771Z,17.30
2023-03-11T15:32:59.860Z,17.30
2023-03-11T15:35:28.981Z,17.20
2023-03-11T15:40:55.125Z,17.20
2023-03-11T15:43:27.838Z,17.10
2023-03-11T15:45:57.978Z,17.20
2023-03-11T15:48:27.978Z,17.10
2023-03-11T15:50:57.699Z,17.00
2023-03-11T15:53:27.335Z,17.10
2023-03-11T15:56:06.642Z,17.10
2023-03-11T15:58:37.541Z,17.20
2023-03-11T16:01:06.093Z,17.10
2023-03-11T16:03:34.599Z,17.10
2023-03-11T16:06:03.026Z,17.00
2023-03-11T16:08:31.458Z,17.00
2023-03-11T16:11:01.208Z,17.00
2023-03-11T16:13:29.676Z,17.00
2023-03-11T16:15:58.077Z,17.00
2023-03-11T16:18:26.570Z,16.90
2023-03-11T16:20:55.866Z,16.90
2023-03-11T16:23:26.085Z,16.80
2023-03-11T16:25:56.517Z,16.80
2023-03-11T16:28:26.299Z,16.80
2023-03-11T16:30:54.766Z,16.80
2023-03-11T16:33:23.189Z,16.70
2023-03-11T16:35:51.595Z,16.70
2023-03-11T16:38:23.038Z,16.80
2023-03-11T16:40:56.601Z,16.80
2023-03-11T16:43:26.711Z,16.70
2023-03-11T16:45:55.702Z,16.70
2023-03-11T16:48:24.516Z,16.70
2023-03-11T16:50:53.044Z,16.60
2023-03-11T16:53:21.991Z,16.60
2023-03-11T16:55:50.424Z,16.60
2023-03-11T16:58:18.848Z,16.50
2023-03-11T17:00:48.907Z,16.50
2023-03-11T17:03:21.316Z,16.40
2023-03-11T17:05:50.898Z,16.40
2023-03-11T17:08:19.425Z,16.40
2023-03-11T17:10:47.917Z,16.40
2023-03-11T17:13:18.989Z,16.40
2023-03-11T17:15:57.528Z,16.40
2023-03-11T17:18:26.054Z,16.40
2023-03-11T17:20:54.508Z,16.30
2023-03-11T17:23:23.339Z,16.30
2023-03-11T17:25:51.894Z,16.30
2023-03-11T17:28:20.425Z,16.20
2023-03-11T17:30:50.294Z,16.20
2023-03-11T17:33:18.759Z,16.20
2023-03-11T17:35:47.437Z,16.20
2023-03-11T17:38:16.660Z,16.20
2023-03-11T17:40:45.211Z,16.20
2023-03-11T17:43:13.640Z,16.10
2023-03-11T17:45:42.644Z,16.10
2023-03-11T17:48:12.485Z,16.20
2023-03-11T17:50:41.025Z,16.10
2023-03-11T17:53:09.513Z,16.10
2023-03-11T17:55:40.275Z,16.10
2023-03-11T17:58:09.016Z,16.10
2023-03-11T18:00:37.414Z,16.00
2023-03-11T18:03:05.858Z,16.00
2023-03-11T18:05:37.783Z,15.90
2023-03-11T18:08:06.366Z,15.90
2023-03-11T18:10:34.784Z,15.80
2023-03-11T18:13:03.273Z,15.80
2023-03-11T18:15:31.710Z,15.70
2023-03-11T18:18:00.181Z,15.70
2023-03-11T18:20:28.606Z,15.70
2023-03-11T18:22:58.433Z,15.80
2023-03-11T18:25:26.862Z,15.70
2023-03-11T18:27:55.248Z,15.80
2023-03-11T18:30:23.687Z,15.70
2023-03-11T18:32:52.215Z,15.70
2023-03-11T18:35:21.132Z,15.60
2023-03-11T18:37:49.508Z,15.50
2023-03-11T18:40:19.676Z,15.50
2023-03-11T18:42:48.138Z,15.60
2023-03-11T18:45:16.704Z,15.60
2023-03-11T18:47:45.242Z,15.50
2023-03-11T18:50:13.736Z,15.50
2023-03-11T18:52:42.197Z,15.50
2023-03-11T18:55:10.930Z,15.40
2023-03-11T18:57:43.220Z,15.40
2023-03-11T19:00:12.154Z,15.30
2023-03-11T19:02:40.568Z,15.30
2023-03-11T19:05:09.169Z,15.30
2023-03-11T19:07:37.692Z,15.30
2023-03-11T19:10:06.532Z,15.40
2023-03-11T19:12:35.054Z,15.40
2023-03-11T19:15:05.147Z,15.50
2023-03-11T19:17:33.560Z,15.50
2023-03-11T19:20:02.060Z,15.50
2023-03-11T19:22:30.466Z,15.50
2023-03-11T19:24:58.871Z,15.50
2023-03-11T19:27:27.315Z,15.50
2023-03-11T19:29:55.778Z,15.40
2023-03-11T19:32:25.739Z,15.50
2023-03-11T19:34:54.198Z,15.50
2023-03-11T19:37:22.589Z,15.50
2023-03-11T19:39:50.946Z,15.50
2023-03-11T19:42:19.416Z,15.50
2023-03-11T19:44:47.874Z,15.40
2023-03-11T19:47:16.287Z,15.40
2023-03-11T19:49:46.162Z,15.40
2023-03-11T19:52:15.416Z,15.40
2023-03-11T19:54:44.020Z,15.40
2023-03-11T19:57:12.502Z,15.40
2023-03-11T19:59:40.980Z,15.40
2023-03-11T20:02:11.685Z,15.40
2023-03-11T20:04:42.959Z,15.30
2023-03-11T20:07:12.983Z,15.30
2023-03-11T20:09:41.475Z,15.30
2023-03-11T20:12:09.907Z,15.30
2023-03-11T20:14:38.285Z,15.30
2023-03-11T20:17:07.776Z,15.30
2023-03-11T20:19:36.303Z,15.30
2023-03-11T20:22:04.795Z,15.30
2023-03-11T20:24:34.699Z,15.20
2023-03-11T20:27:03.239Z,15.20
2023-03-11T20:29:31.755Z,15.10
2023-03-11T20:32:00.258Z,15.10
2023-03-11T20:34:29.433Z,15.10
2023-03-11T20:36:57.910Z,15.10
2023-03-11T20:39:26.452Z,15.10
2023-03-11T20:41:56.269Z,15.00
2023-03-11T20:44:24.734Z,15.00
2023-03-11T20:46:54.917Z,15.00
2023-03-11T20:49:23.501Z,15.00
2023-03-11T20:51:51.978Z,15.00
2023-03-11T20:54:20.527Z,15.00
2023-03-11T20:56:50.705Z,15.00
2023-03-11T20:59:20.597Z,14.90
2023-03-11T21:01:49.392Z,14.90
2023-03-11T21:04:17.980Z,14.90
2023-03-11T21:06:49.810Z,14.90
2023-03-11T21:09:18.235Z,14.90
2023-03-11T21:11:46.676Z,14.90
2023-03-11T21:14:16.246Z,14.90
2023-03-11T21:16:46.730Z,14.90
2023-03-11T21:19:15.538Z,14.90
2023-03-11T21:21:44.301Z,14.80
2023-03-11T21:24:12.851Z,14.80
2023-03-11T21:26:41.365Z,14.80
2023-03-11T21:29:09.835Z,14.70
2023-03-11T21:31:38.479Z,14.60
2023-03-11T21:34:10.935Z,14.60
2023-03-11T21:36:39.495Z,14.60
2023-03-11T21:39:08.082Z,14.50
2023-03-11T21:41:36.640Z,14.50
2023-03-11T21:44:05.227Z,14.60
2023-03-11T21:46:34.042Z,14.60
2023-03-11T21:49:02.665Z,14.50
2023-03-11T21:51:32.486Z,14.50
2023-03-11T21:54:01.114Z,14.50
2023-03-11T21:56:30.125Z,14.50
2023-03-11T21:58:58.671Z,14.50
2023-03-11T22:01:27.435Z,14.50
2023-03-11T22:03:56.764Z,14.50
2023-03-11T22:06:25.278Z,14.40
2023-03-11T22:08:55.298Z,14.40
2023-03-11T22:11:23.833Z,14.30
2023-03-11T22:13:52.906Z,14.30
2023-03-11T22:16:21.975Z,14.30
2023-03-11T22:18:50.850Z,14.30
2023-03-11T22:21:20.671Z,14.20
2023-03-11T22:23:49.474Z,14.10
2023-03-11T22:26:19.508Z,13.90
2023-03-11T22:28:47.977Z,13.90
2023-03-11T22:31:18.529Z,13.90
2023-03-11T22:33:47.339Z,13.90
2023-03-11T22:36:15.795Z,13.90
2023-03-11T22:38:45.064Z,13.90
2023-03-11T22:41:14.066Z,13.80
2023-03-11T22:43:43.813Z,13.80
2023-03-11T22:46:12.202Z,13.80
2023-03-11T22:48:40.628Z,13.80
2023-03-11T22:51:09.269Z,13.80
2023-03-11T22:53:37.876Z,13.80
2023-03-11T22:56:10.010Z,13.80
2023-03-11T22:58:42.358Z,13.80
2023-03-11T23:01:12.500Z,13.80
2023-03-11T23:03:41.345Z,13.80
2023-03-11T23:06:10.529Z,13.90
2023-03-11T23:08:38.998Z,13.80
2023-03-11T23:11:09.103Z,13.80
2023-03-11T23:13:37.572Z,13.80
2023-03-11T23:16:07.360Z,13.80
2023-03-11T23:18:37.637Z,13.80
2023-03-11T23:24:28.026Z,13.80
2023-03-11T23:26:56.485Z,13.70
2023-03-11T23:29:24.906Z,13.70
2023-03-11T23:31:53.396Z,13.70
2023-03-11T23:34:23.211Z,13.60
2023-03-11T23:36:51.633Z,13.60
2023-03-11T23:39:20.112Z,13.50
2023-03-11T23:41:48.524Z,13.50
2023-03-11T23:44:17.099Z,13.60
2023-03-11T23:46:45.516Z,13.50
2023-03-11T23:49:13.873Z,13.60
2023-03-11T23:51:43.697Z,13.40
2023-03-11T23:54:12.128Z,13.30
2023-03-11T23:56:40.560Z,13.30
2023-03-11T23:59:08.990Z,13.20
